sensor_id;sensor_type;location;lat;lon;timestamp;temperature;humidity
51476;DHT22;37554;50.362;7.568;2023-04-24T00:02:04;19.70;51.00
51476;DHT22;37554;50.362;7.568;2023-04-24T00:04:32;19.80;51.10
51476;DHT22;37554;50.362;7.568;2023-04-24T00:06:57;19.80;51.10
51476;DHT22;37554;50.362;7.568;2023-04-24T00:09:25;19.70;51.10
51476;DHT22;37554;50.362;7.568;2023-04-24T00:11:51;19.70;51.10
51476;DHT22;37554;50.362;7.568;2023-04-24T00:14:17;19.70;51.10
51476;DHT22;37554;50.362;7.568;2023-04-24T00:16:43;19.70;51.10
51476;DHT22;37554;50.362;7.568;2023-04-24T00:19:08;19.70;51.10
51476;DHT22;37554;50.362;7.568;2023-04-24T00:21:34;19.70;51.10
51476;DHT22;37554;50.362;7.568;2023-04-24T00:24:00;19.70;51.20
51476;DHT22;37554;50.362;7.568;2023-04-24T00:26:25;19.70;51.10
51476;DHT22;37554;50.362;7.568;2023-04-24T00:28:51;19.70;51.10
51476;DHT22;37554;50.362;7.568;2023-04-24T00:31:17;19.70;51.10
51476;DHT22;37554;50.362;7.568;2023-04-24T00:33:42;19.60;51.10
51476;DHT22;37554;50.362;7.568;2023-04-24T00:36:08;19.60;51.10
51476;DHT22;37554;50.362;7.568;2023-04-24T00:38:34;19.60;51.00
51476;DHT22;37554;50.362;7.568;2023-04-24T00:40:59;19.60;51.00
51476;DHT22;37554;50.362;7.568;2023-04-24T00:43:25;19.60;51.00
51476;DHT22;37554;50.362;7.568;2023-04-24T00:45:51;19.60;51.00
51476;DHT22;37554;50.362;7.568;2023-04-24T00:48:17;19.60;50.90
51476;DHT22;37554;50.362;7.568;2023-04-24T00:50:43;19.50;50.80
51476;DHT22;37554;50.362;7.568;2023-04-24T00:53:09;19.60;50.80
51476;DHT22;37554;50.362;7.568;2023-04-24T00:55:35;19.50;50.70
51476;DHT22;37554;50.362;7.568;2023-04-24T00:58:02;19.50;50.60
51476;DHT22;37554;50.362;7.568;2023-04-24T01:00:29;19.50;50.60
51476;DHT22;37554;50.362;7.568;2023-04-24T01:02:58;19.50;50.50
51476;DHT22;37554;50.362;7.568;2023-04-24T01:05:25;19.60;50.60
51476;DHT22;37554;50.362;7.568;2023-04-24T01:07:51;19.50;50.50
51476;DHT22;37554;50.362;7.568;2023-04-24T01:10:17;19.50;50.50
51476;DHT22;37554;50.362;7.568;2023-04-24T01:12:43;19.50;50.50
51476;DHT22;37554;50.362;7.568;2023-04-24T01:15:09;19.50;50.50
51476;DHT22;37554;50.362;7.568;2023-04-24T01:17:35;19.50;50.50
51476;DHT22;37554;50.362;7.568;2023-04-24T01:20:01;19.50;50.50
51476;DHT22;37554;50.362;7.568;2023-04-24T01:22:29;19.50;50.40
51476;DHT22;37554;50.362;7.568;2023-04-24T01:24:55;19.50;50.40
51476;DHT22;37554;50.362;7.568;2023-04-24T01:27:20;19.50;50.40
51476;DHT22;37554;50.362;7.568;2023-04-24T01:29:47;19.40;50.30
51476;DHT22;37554;50.362;7.568;2023-04-24T01:32:14;19.40;50.40
51476;DHT22;37554;50.362;7.568;2023-04-24T01:34:40;19.40;50.30
51476;DHT22;37554;50.362;7.568;2023-04-24T01:37:06;19.40;50.30
51476;DHT22;37554;50.362;7.568;2023-04-24T01:39:32;19.40;50.30
51476;DHT22;37554;50.362;7.568;2023-04-24T01:41:59;19.40;50.30
51476;DHT22;37554;50.362;7.568;2023-04-24T01:44:26;19.40;50.30
51476;DHT22;37554;50.362;7.568;2023-04-24T01:46:52;19.40;50.30
51476;DHT22;37554;50.362;7.568;2023-04-24T01:49:19;19.40;50.30
51476;DHT22;37554;50.362;7.568;2023-04-24T01:51:45;19.30;50.30
51476;DHT22;37554;50.362;7.568;2023-04-24T01:54:11;19.40;50.30
51476;DHT22;37554;50.362;7.568;2023-04-24T01:56:37;19.30;50.30
51476;DHT22;37554;50.362;7.568;2023-04-24T01:59:04;19.30;50.30
51476;DHT22;37554;50.362;7.568;2023-04-24T02:01:36;19.30;50.40
51476;DHT22;37554;50.362;7.568;2023-04-24T02:04:03;19.30;50.30
51476;DHT22;37554;50.362;7.568;2023-04-24T02:06:29;19.30;50.30
51476;DHT22;37554;50.362;7.568;2023-04-24T02:08:57;19.30;50.30
51476;DHT22;37554;50.362;7.568;2023-04-24T02:11:23;19.20;50.30
51476;DHT22;37554;50.362;7.568;2023-04-24T02:13:48;19.20;50.30
51476;DHT22;37554;50.362;7.568;2023-04-24T02:16:14;19.20;50.30
51476;DHT22;37554;50.362;7.568;2023-04-24T02:18:40;19.20;50.30
51476;DHT22;37554;50.362;7.568;2023-04-24T02:21:05;19.20;50.30
51476;DHT22;37554;50.362;7.568;2023-04-24T02:23:31;19.20;50.30
51476;DHT22;37554;50.362;7.568;2023-04-24T02:25:56;19.20;50.30
51476;DHT22;37554;50.362;7.568;2023-04-24T02:28:22;19.20;50.30
51476;DHT22;37554;50.362;7.568;2023-04-24T02:30:47;19.10;50.20
51476;DHT22;37554;50.362;7.568;2023-04-24T02:33:13;19.10;50.20
51476;DHT22;37554;50.362;7.568;2023-04-24T02:35:38;19.10;50.20
51476;DHT22;37554;50.362;7.568;2023-04-24T02:38:04;19.10;50.30
51476;DHT22;37554;50.362;7.568;2023-04-24T02:40:30;19.10;50.20
51476;DHT22;37554;50.362;7.568;2023-04-24T02:42:55;19.10;50.20
51476;DHT22;37554;50.362;7.568;2023-04-24T02:45:21;19.10;50.20
51476;DHT22;37554;50.362;7.568;2023-04-24T02:47:47;19.00;50.10
51476;DHT22;37554;50.362;7.568;2023-04-24T02:50:12;19.10;50.20
51476;DHT22;37554;50.362;7.568;2023-04-24T02:52:38;19.00;50.20
51476;DHT22;37554;50.362;7.568;2023-04-24T02:55:05;19.00;50.20
51476;DHT22;37554;50.362;7.568;2023-04-24T02:57:30;19.00;50.20
51476;DHT22;37554;50.362;7.568;2023-04-24T02:59:56;19.00;50.20
51476;DHT22;37554;50.362;7.568;2023-04-24T03:02:22;19.00;50.20
51476;DHT22;37554;50.362;7.568;2023-04-24T03:04:47;19.00;50.20
51476;DHT22;37554;50.362;7.568;2023-04-24T03:07:14;18.90;50.10
51476;DHT22;37554;50.362;7.568;2023-04-24T03:09:40;18.90;50.00
51476;DHT22;37554;50.362;7.568;2023-04-24T03:12:06;19.00;50.10
51476;DHT22;37554;50.362;7.568;2023-04-24T03:14:31;18.90;50.10
51476;DHT22;37554;50.362;7.568;2023-04-24T03:16:57;18.90;50.10
51476;DHT22;37554;50.362;7.568;2023-04-24T03:19:23;18.90;50.10
51476;DHT22;37554;50.362;7.568;2023-04-24T03:21:49;18.90;50.10
51476;DHT22;37554;50.362;7.568;2023-04-24T03:24:15;18.90;50.10
51476;DHT22;37554;50.362;7.568;2023-04-24T03:26:41;18.80;49.90
51476;DHT22;37554;50.362;7.568;2023-04-24T03:29:06;18.90;50.00
51476;DHT22;37554;50.362;7.568;2023-04-24T03:31:32;18.80;49.90
51476;DHT22;37554;50.362;7.568;2023-04-24T03:33:58;18.80;49.80
51476;DHT22;37554;50.362;7.568;2023-04-24T03:36:23;18.80;49.80
51476;DHT22;37554;50.362;7.568;2023-04-24T03:38:49;18.80;49.70
51476;DHT22;37554;50.362;7.568;2023-04-24T03:41:15;18.80;49.70
51476;DHT22;37554;50.362;7.568;2023-04-24T03:43:40;18.80;49.70
51476;DHT22;37554;50.362;7.568;2023-04-24T03:46:06;18.70;49.60
51476;DHT22;37554;50.362;7.568;2023-04-24T03:48:34;18.70;49.50
51476;DHT22;37554;50.362;7.568;2023-04-24T03:51:00;18.70;49.40
51476;DHT22;37554;50.362;7.568;2023-04-24T03:53:26;18.70;49.40
51476;DHT22;37554;50.362;7.568;2023-04-24T03:55:52;18.60;49.30
51476;DHT22;37554;50.362;7.568;2023-04-24T03:58:18;18.60;49.20
51476;DHT22;37554;50.362;7.568;2023-04-24T04:00:44;18.60;49.10
51476;DHT22;37554;50.362;7.568;2023-04-24T04:03:10;18.60;49.00
51476;DHT22;37554;50.362;7.568;2023-04-24T04:05:35;18.60;49.00
51476;DHT22;37554;50.362;7.568;2023-04-24T04:08:01;18.60;48.80
51476;DHT22;37554;50.362;7.568;2023-04-24T04:10:27;18.50;48.70
51476;DHT22;37554;50.362;7.568;2023-04-24T04:12:52;18.50;48.70
51476;DHT22;37554;50.362;7.568;2023-04-24T04:15:18;18.50;48.60
51476;DHT22;37554;50.362;7.568;2023-04-24T04:17:44;18.50;48.50
51476;DHT22;37554;50.362;7.568;2023-04-24T04:20:11;18.40;48.40
51476;DHT22;37554;50.362;7.568;2023-04-24T04:22:37;18.40;48.40
51476;DHT22;37554;50.362;7.568;2023-04-24T04:25:03;18.40;48.30
51476;DHT22;37554;50.362;7.568;2023-04-24T04:27:30;18.40;48.30
51476;DHT22;37554;50.362;7.568;2023-04-24T04:30:01;18.40;48.20
51476;DHT22;37554;50.362;7.568;2023-04-24T04:32:33;18.40;48.20
51476;DHT22;37554;50.362;7.568;2023-04-24T04:35:00;18.40;48.20
51476;DHT22;37554;50.362;7.568;2023-04-24T04:37:32;18.40;48.10
51476;DHT22;37554;50.362;7.568;2023-04-24T04:39:59;18.30;48.10
51476;DHT22;37554;50.362;7.568;2023-04-24T04:42:25;18.30;48.10
51476;DHT22;37554;50.362;7.568;2023-04-24T04:44:52;18.30;48.00
51476;DHT22;37554;50.362;7.568;2023-04-24T04:47:21;18.30;48.00
51476;DHT22;37554;50.362;7.568;2023-04-24T04:49:50;18.30;47.90
51476;DHT22;37554;50.362;7.568;2023-04-24T04:52:17;18.30;47.90
51476;DHT22;37554;50.362;7.568;2023-04-24T04:54:43;18.30;47.90
51476;DHT22;37554;50.362;7.568;2023-04-24T04:57:09;18.20;47.90
51476;DHT22;37554;50.362;7.568;2023-04-24T04:59:35;18.30;47.80
51476;DHT22;37554;50.362;7.568;2023-04-24T05:02:00;18.30;47.80
51476;DHT22;37554;50.362;7.568;2023-04-24T05:04:26;18.30;47.80
51476;DHT22;37554;50.362;7.568;2023-04-24T05:06:52;18.30;47.80
51476;DHT22;37554;50.362;7.568;2023-04-24T05:09:18;18.30;47.70
51476;DHT22;37554;50.362;7.568;2023-04-24T05:11:44;18.30;47.70
51476;DHT22;37554;50.362;7.568;2023-04-24T05:14:10;18.30;47.60
51476;DHT22;37554;50.362;7.568;2023-04-24T05:16:35;18.30;47.60
51476;DHT22;37554;50.362;7.568;2023-04-24T05:19:02;18.30;48.10
51476;DHT22;37554;50.362;7.568;2023-04-24T05:21:28;18.30;47.50
51476;DHT22;37554;50.362;7.568;2023-04-24T05:23:53;18.30;47.40
51476;DHT22;37554;50.362;7.568;2023-04-24T05:26:19;18.30;47.40
51476;DHT22;37554;50.362;7.568;2023-04-24T05:28:44;18.30;47.30
51476;DHT22;37554;50.362;7.568;2023-04-24T05:31:10;18.30;47.40
51476;DHT22;37554;50.362;7.568;2023-04-24T05:33:37;18.30;47.20
51476;DHT22;37554;50.362;7.568;2023-04-24T05:36:03;18.30;47.20
51476;DHT22;37554;50.362;7.568;2023-04-24T05:38:30;18.30;47.20
51476;DHT22;37554;50.362;7.568;2023-04-24T05:40:56;18.30;47.20
51476;DHT22;37554;50.362;7.568;2023-04-24T05:43:22;18.20;47.40
51476;DHT22;37554;50.362;7.568;2023-04-24T05:45:47;17.90;46.50
51476;DHT22;37554;50.362;7.568;2023-04-24T05:48:13;17.70;46.90
51476;DHT22;37554;50.362;7.568;2023-04-24T05:50:38;17.50;47.00
51476;DHT22;37554;50.362;7.568;2023-04-24T05:53:05;17.30;47.20
51476;DHT22;37554;50.362;7.568;2023-04-24T05:55:32;17.10;47.20
51476;DHT22;37554;50.362;7.568;2023-04-24T05:57:58;17.00;47.40
51476;DHT22;37554;50.362;7.568;2023-04-24T06:00:24;16.80;47.80
51476;DHT22;37554;50.362;7.568;2023-04-24T06:02:50;17.00;48.10
51476;DHT22;37554;50.362;7.568;2023-04-24T06:05:18;17.10;48.10
51476;DHT22;37554;50.362;7.568;2023-04-24T06:07:44;17.20;47.90
51476;DHT22;37554;50.362;7.568;2023-04-24T06:10:13;17.40;47.80
51476;DHT22;37554;50.362;7.568;2023-04-24T06:12:39;17.60;47.60
51476;DHT22;37554;50.362;7.568;2023-04-24T06:15:05;17.60;47.50
51476;DHT22;37554;50.362;7.568;2023-04-24T06:17:31;17.70;47.50
51476;DHT22;37554;50.362;7.568;2023-04-24T06:19:57;17.80;47.40
51476;DHT22;37554;50.362;7.568;2023-04-24T06:22:23;17.80;47.40
51476;DHT22;37554;50.362;7.568;2023-04-24T06:24:49;17.90;47.30
51476;DHT22;37554;50.362;7.568;2023-04-24T06:27:14;17.90;47.20
51476;DHT22;37554;50.362;7.568;2023-04-24T06:29:40;18.00;47.20
51476;DHT22;37554;50.362;7.568;2023-04-24T06:32:06;18.10;47.20
51476;DHT22;37554;50.362;7.568;2023-04-24T06:34:31;18.30;47.00
51476;DHT22;37554;50.362;7.568;2023-04-24T06:36:59;18.40;46.90
51476;DHT22;37554;50.362;7.568;2023-04-24T06:39:25;18.50;46.60
51476;DHT22;37554;50.362;7.568;2023-04-24T06:41:51;18.60;46.50
51476;DHT22;37554;50.362;7.568;2023-04-24T06:44:17;18.60;46.40
51476;DHT22;37554;50.362;7.568;2023-04-24T06:46:42;18.60;46.60
51476;DHT22;37554;50.362;7.568;2023-04-24T06:49:09;18.60;46.60
51476;DHT22;37554;50.362;7.568;2023-04-24T06:51:34;18.70;46.60
51476;DHT22;37554;50.362;7.568;2023-04-24T06:54:03;18.70;46.60
51476;DHT22;37554;50.362;7.568;2023-04-24T06:56:28;18.70;46.60
51476;DHT22;37554;50.362;7.568;2023-04-24T06:58:57;18.80;46.50
51476;DHT22;37554;50.362;7.568;2023-04-24T07:01:22;18.80;46.40
51476;DHT22;37554;50.362;7.568;2023-04-24T07:03:48;18.80;46.40
51476;DHT22;37554;50.362;7.568;2023-04-24T07:06:14;18.80;46.40
51476;DHT22;37554;50.362;7.568;2023-04-24T07:08:41;18.80;46.40
51476;DHT22;37554;50.362;7.568;2023-04-24T07:11:07;18.80;46.30
51476;DHT22;37554;50.362;7.568;2023-04-24T07:13:33;18.80;46.30
51476;DHT22;37554;50.362;7.568;2023-04-24T07:16:00;18.90;46.30
51476;DHT22;37554;50.362;7.568;2023-04-24T07:18:26;18.90;46.20
51476;DHT22;37554;50.362;7.568;2023-04-24T07:20:55;18.90;46.30
51476;DHT22;37554;50.362;7.568;2023-04-24T07:23:20;18.90;46.30
51476;DHT22;37554;50.362;7.568;2023-04-24T07:25:46;18.90;46.30
51476;DHT22;37554;50.362;7.568;2023-04-24T07:28:12;18.80;46.30
51476;DHT22;37554;50.362;7.568;2023-04-24T07:30:38;18.80;46.30
51476;DHT22;37554;50.362;7.568;2023-04-24T07:33:07;18.90;46.30
51476;DHT22;37554;50.362;7.568;2023-04-24T07:35:33;18.90;46.30
51476;DHT22;37554;50.362;7.568;2023-04-24T07:37:59;18.80;45.70
51476;DHT22;37554;50.362;7.568;2023-04-24T07:40:25;18.50;45.70
51476;DHT22;37554;50.362;7.568;2023-04-24T07:42:51;18.00;45.90
51476;DHT22;37554;50.362;7.568;2023-04-24T07:45:17;17.40;46.60
51476;DHT22;37554;50.362;7.568;2023-04-24T07:47:42;17.00;47.50
51476;DHT22;37554;50.362;7.568;2023-04-24T07:50:11;16.90;47.90
51476;DHT22;37554;50.362;7.568;2023-04-24T07:52:38;16.60;48.30
51476;DHT22;37554;50.362;7.568;2023-04-24T07:55:04;16.50;48.70
51476;DHT22;37554;50.362;7.568;2023-04-24T07:57:30;16.70;48.80
51476;DHT22;37554;50.362;7.568;2023-04-24T07:59:56;17.10;48.60
51476;DHT22;37554;50.362;7.568;2023-04-24T08:02:21;17.40;48.20
51476;DHT22;37554;50.362;7.568;2023-04-24T08:04:54;17.80;47.70
51476;DHT22;37554;50.362;7.568;2023-04-24T08:07:20;18.00;47.20
51476;DHT22;37554;50.362;7.568;2023-04-24T08:09:46;18.20;47.00
51476;DHT22;37554;50.362;7.568;2023-04-24T08:12:12;18.30;46.70
51476;DHT22;37554;50.362;7.568;2023-04-24T08:14:37;18.40;46.60
51476;DHT22;37554;50.362;7.568;2023-04-24T08:17:03;18.60;46.40
51476;DHT22;37554;50.362;7.568;2023-04-24T08:19:29;18.70;46.20
51476;DHT22;37554;50.362;7.568;2023-04-24T08:21:54;18.80;46.00
51476;DHT22;37554;50.362;7.568;2023-04-24T08:24:20;18.90;46.00
51476;DHT22;37554;50.362;7.568;2023-04-24T08:26:46;18.90;46.00
51476;DHT22;37554;50.362;7.568;2023-04-24T08:29:15;18.90;45.90
51476;DHT22;37554;50.362;7.568;2023-04-24T08:31:41;18.90;46.00
51476;DHT22;37554;50.362;7.568;2023-04-24T08:34:06;18.90;46.00
51476;DHT22;37554;50.362;7.568;2023-04-24T08:36:32;18.90;46.10
51476;DHT22;37554;50.362;7.568;2023-04-24T08:38:58;18.90;46.80
51476;DHT22;37554;50.362;7.568;2023-04-24T08:41:24;18.90;46.20
51476;DHT22;37554;50.362;7.568;2023-04-24T08:43:51;18.90;46.30
51476;DHT22;37554;50.362;7.568;2023-04-24T08:46:18;18.90;46.30
51476;DHT22;37554;50.362;7.568;2023-04-24T08:48:45;19.00;46.30
51476;DHT22;37554;50.362;7.568;2023-04-24T08:51:11;19.00;46.30
51476;DHT22;37554;50.362;7.568;2023-04-24T08:53:37;19.10;46.30
51476;DHT22;37554;50.362;7.568;2023-04-24T08:56:04;19.10;46.30
51476;DHT22;37554;50.362;7.568;2023-04-24T08:58:31;19.20;46.20
51476;DHT22;37554;50.362;7.568;2023-04-24T09:00:57;19.20;46.10
51476;DHT22;37554;50.362;7.568;2023-04-24T09:03:23;19.30;46.20
51476;DHT22;37554;50.362;7.568;2023-04-24T09:05:49;19.30;46.10
51476;DHT22;37554;50.362;7.568;2023-04-24T09:08:18;19.30;46.20
51476;DHT22;37554;50.362;7.568;2023-04-24T09:10:44;19.30;46.20
51476;DHT22;37554;50.362;7.568;2023-04-24T09:13:09;19.40;46.20
51476;DHT22;37554;50.362;7.568;2023-04-24T09:15:36;19.40;46.20
51476;DHT22;37554;50.362;7.568;2023-04-24T09:18:02;19.40;46.10
51476;DHT22;37554;50.362;7.568;2023-04-24T09:20:28;19.50;46.10
51476;DHT22;37554;50.362;7.568;2023-04-24T09:22:54;19.60;46.20
51476;DHT22;37554;50.362;7.568;2023-04-24T09:25:34;19.60;46.10
51476;DHT22;37554;50.362;7.568;2023-04-24T09:28:02;19.60;46.20
51476;DHT22;37554;50.362;7.568;2023-04-24T09:30:29;19.60;46.20
51476;DHT22;37554;50.362;7.568;2023-04-24T09:33:12;19.60;46.20
51476;DHT22;37554;50.362;7.568;2023-04-24T09:35:41;19.60;46.20
51476;DHT22;37554;50.362;7.568;2023-04-24T09:38:07;19.70;46.30
51476;DHT22;37554;50.362;7.568;2023-04-24T09:40:34;19.70;46.20
51476;DHT22;37554;50.362;7.568;2023-04-24T09:43:00;19.80;46.20
51476;DHT22;37554;50.362;7.568;2023-04-24T09:45:28;19.80;46.10
51476;DHT22;37554;50.362;7.568;2023-04-24T09:48:00;19.90;46.20
51476;DHT22;37554;50.362;7.568;2023-04-24T09:50:26;19.90;46.10
51476;DHT22;37554;50.362;7.568;2023-04-24T09:53:05;19.90;46.20
51476;DHT22;37554;50.362;7.568;2023-04-24T09:55:31;19.90;46.30
51476;DHT22;37554;50.362;7.568;2023-04-24T09:57:58;20.00;46.30
51476;DHT22;37554;50.362;7.568;2023-04-24T10:00:28;20.00;46.20
51476;DHT22;37554;50.362;7.568;2023-04-24T10:05:28;20.10;46.30
51476;DHT22;37554;50.362;7.568;2023-04-24T10:08:06;20.10;46.20
51476;DHT22;37554;50.362;7.568;2023-04-24T10:10:34;20.10;46.30
51476;DHT22;37554;50.362;7.568;2023-04-24T10:13:00;20.10;46.30
51476;DHT22;37554;50.362;7.568;2023-04-24T10:15:26;20.20;46.40
51476;DHT22;37554;50.362;7.568;2023-04-24T10:17:52;20.10;46.30
51476;DHT22;37554;50.362;7.568;2023-04-24T10:20:22;20.10;46.30
51476;DHT22;37554;50.362;7.568;2023-04-24T10:22:50;20.10;47.00
51476;DHT22;37554;50.362;7.568;2023-04-24T10:25:21;20.10;46.30
51476;DHT22;37554;50.362;7.568;2023-04-24T10:27:49;20.10;46.30
51476;DHT22;37554;50.362;7.568;2023-04-24T10:30:15;20.10;46.30
51476;DHT22;37554;50.362;7.568;2023-04-24T10:32:41;20.10;46.20
51476;DHT22;37554;50.362;7.568;2023-04-24T10:35:08;20.20;46.20
51476;DHT22;37554;50.362;7.568;2023-04-24T10:37:39;20.20;46.10
51476;DHT22;37554;50.362;7.568;2023-04-24T10:40:07;20.20;46.10
51476;DHT22;37554;50.362;7.568;2023-04-24T10:42:34;20.10;46.00
51476;DHT22;37554;50.362;7.568;2023-04-24T10:45:04;20.20;46.00
51476;DHT22;37554;50.362;7.568;2023-04-24T10:47:30;20.10;45.90
51476;DHT22;37554;50.362;7.568;2023-04-24T10:50:09;20.20;45.90
51476;DHT22;37554;50.362;7.568;2023-04-24T10:52:48;20.10;45.80
51476;DHT22;37554;50.362;7.568;2023-04-24T10:55:17;20.20;45.70
51476;DHT22;37554;50.362;7.568;2023-04-24T10:58:04;20.20;45.70
51476;DHT22;37554;50.362;7.568;2023-04-24T11:00:30;20.20;45.60
51476;DHT22;37554;50.362;7.568;2023-04-24T11:02:56;20.10;45.50
51476;DHT22;37554;50.362;7.568;2023-04-24T11:05:23;20.10;45.40
51476;DHT22;37554;50.362;7.568;2023-04-24T11:08:16;20.20;45.40
51476;DHT22;37554;50.362;7.568;2023-04-24T11:10:54;20.20;45.20
51476;DHT22;37554;50.362;7.568;2023-04-24T11:13:23;20.20;45.20
51476;DHT22;37554;50.362;7.568;2023-04-24T11:18:42;20.20;44.90
51476;DHT22;37554;50.362;7.568;2023-04-24T11:21:17;20.20;45.00
51476;DHT22;37554;50.362;7.568;2023-04-24T11:23:44;20.20;44.80
51476;DHT22;37554;50.362;7.568;2023-04-24T11:26:21;20.20;44.80
51476;DHT22;37554;50.362;7.568;2023-04-24T11:28:49;20.20;44.80
51476;DHT22;37554;50.362;7.568;2023-04-24T11:31:34;20.20;44.70
51476;DHT22;37554;50.362;7.568;2023-04-24T11:34:13;20.20;44.60
51476;DHT22;37554;50.362;7.568;2023-04-24T11:36:39;20.10;44.70
51476;DHT22;37554;50.362;7.568;2023-04-24T11:39:05;20.10;44.90
51476;DHT22;37554;50.362;7.568;2023-04-24T11:41:33;20.10;45.10
51476;DHT22;37554;50.362;7.568;2023-04-24T11:43:59;20.10;45.20
51476;DHT22;37554;50.362;7.568;2023-04-24T11:46:29;20.10;45.40
51476;DHT22;37554;50.362;7.568;2023-04-24T11:48:56;20.10;45.70
51476;DHT22;37554;50.362;7.568;2023-04-24T11:51:26;20.00;45.80
51476;DHT22;37554;50.362;7.568;2023-04-24T11:53:52;20.00;45.90
51476;DHT22;37554;50.362;7.568;2023-04-24T11:56:19;19.90;46.00
51476;DHT22;37554;50.362;7.568;2023-04-24T11:58:45;19.90;46.00
51476;DHT22;37554;50.362;7.568;2023-04-24T12:01:11;20.00;46.20
51476;DHT22;37554;50.362;7.568;2023-04-24T12:03:37;20.00;46.30
51476;DHT22;37554;50.362;7.568;2023-04-24T12:06:10;20.10;46.10
51476;DHT22;37554;50.362;7.568;2023-04-24T12:08:36;20.30;45.80
51476;DHT22;37554;50.362;7.568;2023-04-24T12:11:06;20.40;45.60
51476;DHT22;37554;50.362;7.568;2023-04-24T12:13:33;20.50;45.50
51476;DHT22;37554;50.362;7.568;2023-04-24T12:16:01;20.60;45.50
51476;DHT22;37554;50.362;7.568;2023-04-24T12:18:27;20.60;45.40
51476;DHT22;37554;50.362;7.568;2023-04-24T12:20:52;20.60;45.50
51476;DHT22;37554;50.362;7.568;2023-04-24T12:23:35;20.60;45.70
51476;DHT22;37554;50.362;7.568;2023-04-24T12:26:06;20.60;45.90
51476;DHT22;37554;50.362;7.568;2023-04-24T12:28:36;20.50;45.90
51476;DHT22;37554;50.362;7.568;2023-04-24T12:31:02;20.60;46.00
51476;DHT22;37554;50.362;7.568;2023-04-24T12:33:27;20.60;45.90
51476;DHT22;37554;50.362;7.568;2023-04-24T12:35:54;20.50;45.80
51476;DHT22;37554;50.362;7.568;2023-04-24T12:38:25;20.50;45.90
51476;DHT22;37554;50.362;7.568;2023-04-24T12:41:08;20.50;45.90
51476;DHT22;37554;50.362;7.568;2023-04-24T12:43:35;20.60;45.80
51476;DHT22;37554;50.362;7.568;2023-04-24T12:46:01;20.70;45.70
51476;DHT22;37554;50.362;7.568;2023-04-24T12:48:28;20.80;45.60
51476;DHT22;37554;50.362;7.568;2023-04-24T12:50:54;20.90;45.40
51476;DHT22;37554;50.362;7.568;2023-04-24T12:53:21;21.20;45.20
51476;DHT22;37554;50.362;7.568;2023-04-24T12:55:47;21.60;44.80
51476;DHT22;37554;50.362;7.568;2023-04-24T12:58:19;21.70;44.60
51476;DHT22;37554;50.362;7.568;2023-04-24T13:00:45;21.70;44.30
51476;DHT22;37554;50.362;7.568;2023-04-24T13:03:12;21.80;44.20
51476;DHT22;37554;50.362;7.568;2023-04-24T13:05:37;21.80;44.10
51476;DHT22;37554;50.362;7.568;2023-04-24T13:08:03;21.70;44.00
51476;DHT22;37554;50.362;7.568;2023-04-24T13:10:29;21.60;44.10
51476;DHT22;37554;50.362;7.568;2023-04-24T13:12:54;21.60;44.20
51476;DHT22;37554;50.362;7.568;2023-04-24T13:15:20;21.50;44.40
51476;DHT22;37554;50.362;7.568;2023-04-24T13:17:46;21.40;44.60
51476;DHT22;37554;50.362;7.568;2023-04-24T13:20:11;21.30;44.70
51476;DHT22;37554;50.362;7.568;2023-04-24T13:22:37;21.30;44.90
51476;DHT22;37554;50.362;7.568;2023-04-24T13:25:03;21.20;44.90
51476;DHT22;37554;50.362;7.568;2023-04-24T13:27:31;21.20;45.00
51476;DHT22;37554;50.362;7.568;2023-04-24T13:29:56;21.10;44.90
51476;DHT22;37554;50.362;7.568;2023-04-24T13:32:22;21.10;45.00
51476;DHT22;37554;50.362;7.568;2023-04-24T13:34:48;21.10;45.00
51476;DHT22;37554;50.362;7.568;2023-04-24T13:37:13;21.00;45.00
51476;DHT22;37554;50.362;7.568;2023-04-24T13:39:40;21.10;45.00
51476;DHT22;37554;50.362;7.568;2023-04-24T13:42:06;21.10;44.90
51476;DHT22;37554;50.362;7.568;2023-04-24T13:44:32;21.00;44.80
51476;DHT22;37554;50.362;7.568;2023-04-24T13:46:58;21.00;44.70
51476;DHT22;37554;50.362;7.568;2023-04-24T13:49:24;21.10;44.60
51476;DHT22;37554;50.362;7.568;2023-04-24T13:51:53;21.10;44.40
51476;DHT22;37554;50.362;7.568;2023-04-24T13:54:19;21.10;44.30
51476;DHT22;37554;50.362;7.568;2023-04-24T13:56:44;21.20;44.20
51476;DHT22;37554;50.362;7.568;2023-04-24T13:59:14;21.20;44.20
51476;DHT22;37554;50.362;7.568;2023-04-24T14:01:40;21.20;44.70
51476;DHT22;37554;50.362;7.568;2023-04-24T14:04:06;21.30;44.10
51476;DHT22;37554;50.362;7.568;2023-04-24T14:06:31;21.20;43.90
51476;DHT22;37554;50.362;7.568;2023-04-24T14:08:57;21.20;43.90
51476;DHT22;37554;50.362;7.568;2023-04-24T14:11:23;21.20;44.00
51476;DHT22;37554;50.362;7.568;2023-04-24T14:13:49;21.20;44.00
51476;DHT22;37554;50.362;7.568;2023-04-24T14:16:15;21.10;44.00
51476;DHT22;37554;50.362;7.568;2023-04-24T14:18:41;21.10;44.10
51476;DHT22;37554;50.362;7.568;2023-04-24T14:21:06;21.10;44.10
51476;DHT22;37554;50.362;7.568;2023-04-24T14:23:32;21.00;44.10
51476;DHT22;37554;50.362;7.568;2023-04-24T14:25:59;21.00;44.10
51476;DHT22;37554;50.362;7.568;2023-04-24T14:28:25;21.00;44.10
51476;DHT22;37554;50.362;7.568;2023-04-24T14:30:51;21.00;44.10
51476;DHT22;37554;50.362;7.568;2023-04-24T14:33:17;21.00;44.00
51476;DHT22;37554;50.362;7.568;2023-04-24T14:35:43;21.00;43.90
51476;DHT22;37554;50.362;7.568;2023-04-24T14:38:09;21.10;43.90
51476;DHT22;37554;50.362;7.568;2023-04-24T14:40:35;21.10;43.70
51476;DHT22;37554;50.362;7.568;2023-04-24T14:43:01;21.20;43.50
51476;DHT22;37554;50.362;7.568;2023-04-24T14:45:27;21.30;43.40
51476;DHT22;37554;50.362;7.568;2023-04-24T14:47:53;21.30;43.20
51476;DHT22;37554;50.362;7.568;2023-04-24T14:50:19;21.40;43.10
51476;DHT22;37554;50.362;7.568;2023-04-24T14:52:45;21.50;43.60
51476;DHT22;37554;50.362;7.568;2023-04-24T14:55:11;21.50;42.80
51476;DHT22;37554;50.362;7.568;2023-04-24T14:57:36;21.60;42.10
51476;DHT22;37554;50.362;7.568;2023-04-24T15:00:04;21.60;42.30
51476;DHT22;37554;50.362;7.568;2023-04-24T15:02:32;21.70;42.30
51476;DHT22;37554;50.362;7.568;2023-04-24T15:04:58;21.70;42.10
51476;DHT22;37554;50.362;7.568;2023-04-24T15:07:24;21.70;42.00
51476;DHT22;37554;50.362;7.568;2023-04-24T15:09:49;21.70;42.00
51476;DHT22;37554;50.362;7.568;2023-04-24T15:12:15;21.60;42.00
51476;DHT22;37554;50.362;7.568;2023-04-24T15:14:41;21.50;42.10
51476;DHT22;37554;50.362;7.568;2023-04-24T15:17:07;21.40;42.20
51476;DHT22;37554;50.362;7.568;2023-04-24T15:19:32;21.40;42.30
51476;DHT22;37554;50.362;7.568;2023-04-24T15:21:58;21.30;42.40
51476;DHT22;37554;50.362;7.568;2023-04-24T15:24:23;21.20;42.40
51476;DHT22;37554;50.362;7.568;2023-04-24T15:26:49;21.20;42.40
51476;DHT22;37554;50.362;7.568;2023-04-24T15:29:15;21.30;42.40
51476;DHT22;37554;50.362;7.568;2023-04-24T15:31:41;21.40;42.30
51476;DHT22;37554;50.362;7.568;2023-04-24T15:34:06;21.40;42.20